Time;durP1;ratioP1;P1;durP2;ratioP2;P2;SDS_P1;SDS_P2;PMS_P1;PMS_P2;Temp;Humidity;BMP_temperature;BMP_pressure;BME280_temperature;BME280_humidity;BME280_pressure;Samples;Min_cycle;Max_cycle;Signal;HPM_P1;HPM_P2
2023/04/24 00:00:29;;;;;;;;;;;;;;;;;;5037506;28;20055;-22
2023/04/24 00:02:56;;;;;;;;;;;;;;;;;;5037663;28;19909;-21
2023/04/24 00:05:22;;;;;;;;;;;;;;;;;;5037462;28;19925;-21
2023/04/24 00:07:48;;;;;;;;;;;;;;;;;;5037556;28;19909;-21
2023/04/24 00:10:14;;;;;;;;;;;;;;;;;;5036216;28;20020;-22
2023/04/24 00:12:40;;;;;;;;;;;;;;;;;;5037162;28;19920;-22
2023/04/24 00:15:06;;;;;;;;;;;;;;;;;;5037224;28;19963;-21
2023/04/24 00:17:32;;;;;;;;;;;;;;;;;;5037103;28;19918;-21
2023/04/24 00:19:58;;;;;;;;;;;;;;;;;;5037341;28;19910;-23
2023/04/24 00:22:24;;;;;;;;;;;;;;;;;;5037096;28;19975;-23
2023/04/24 00:24:50;;;;;;;;;;;;;;;;;;5037003;28;20259;-22
2023/04/24 00:27:16;;;;;;;;;;;;;;;;;;5036966;28;20248;-22
2023/04/24 00:29:42;;;;;;;;;;;;;;;;;;5019418;28;20310;-20
2023/04/24 00:32:08;;;;;;;;;;;;;;;;;;5036819;28;19909;-22
2023/04/24 00:34:34;;;;;;;;;;;;;;;;;;5037153;28;19916;-23
2023/04/24 00:37:00;;;;;;;;;;;;;;;;;;5019195;28;19923;-24
2023/04/24 00:39:26;;;;;;;;;;;;;;;;;;5037039;28;20295;-22
2023/04/24 00:41:52;;;;;;;;;;;;;;;;;;5036657;28;19909;-22
2023/04/24 00:44:18;;;;;;;;;;;;;;;;;;5036658;28;19919;-21
2023/04/24 00:46:44;;;;;;;;;;;;;;;;;;5036665;28;19913;-21
2023/04/24 00:49:10;;;;;;;;;;;;;;;;;;5036575;28;19958;-22
2023/04/24 00:51:36;;;;;;;;;;;;;;;;;;5036565;28;19924;-22
2023/04/24 00:54:02;;;;;;;;;;;;;;;;;;5036457;28;19981;-22
2023/04/24 00:56:28;;;;;;;;;;;;;;;;;;5036381;28;19991;-21
2023/04/24 00:58:54;;;;;;;;;;;;;;;;;;5036407;28;19939;-21
2023/04/24 01:01:20;;;;;;;;;;;;;;;;;;5018911;28;19978;-21
2023/04/24 01:03:46;;;;;;;;;;;;;;;;;;5036235;28;20027;-22
2023/04/24 01:06:12;;;;;;;;;;;;;;;;;;5036727;28;19913;-23
2023/04/24 01:08:38;;;;;;;;;;;;;;;;;;5018732;28;19920;-24
2023/04/24 01:11:04;;;;;;;;;;;;;;;;;;5036127;28;19913;-23
2023/04/24 01:13:30;;;;;;;;;;;;;;;;;;5036051;28;19920;-21
2023/04/24 01:15:56;;;;;;;;;;;;;;;;;;5036293;28;19917;-21
2023/04/24 01:18:22;;;;;;;;;;;;;;;;;;5036079;28;19909;-20
2023/04/24 01:20:48;;;;;;;;;;;;;;;;;;5036073;28;19909;-29
2023/04/24 01:23:15;;;;;;;;;;;;;;;;;;5035445;28;19913;-22
2023/04/24 01:25:41;;;;;;;;;;;;;;;;;;5018418;28;19909;-22
2023/04/24 01:28:06;;;;;;;;;;;;;;;;;;5035859;28;19991;-22
2023/04/24 01:30:32;;;;;;;;;;;;;;;;;;5019086;28;19909;-22
2023/04/24 01:32:58;;;;;;;;;;;;;;;;;;5035730;28;19913;-20
2023/04/24 01:35:24;;;;;;;;;;;;;;;;;;5035712;28;19914;-22
2023/04/24 01:37:50;;;;;;;;;;;;;;;;;;5035536;28;20011;-23
2023/04/24 01:40:16;;;;;;;;;;;;;;;;;;5035619;28;19916;-22
2023/04/24 01:42:42;;;;;;;;;;;;;;;;;;5035506;28;20391;-22
2023/04/24 01:45:08;;;;;;;;;;;;;;;;;;5035569;28;20329;-22
2023/04/24 01:47:34;;;;;;;;;;;;;;;;;;5035527;28;19920;-21
2023/04/24 01:50:00;;;;;;;;;;;;;;;;;;5035809;28;19936;-21
2023/04/24 01:52:27;;;;;;;;;;;;;;;;;;5035627;28;19913;-22
2023/04/24 01:54:53;;;;;;;;;;;;;;;;;;5035290;28;19992;-22
2023/04/24 01:57:19;;;;;;;;;;;;;;;;;;5035493;28;19963;-22
2023/04/24 01:59:45;;;;;;;;;;;;;;;;;;5035240;28;19931;-23
2023/04/24 02:02:10;;;;;;;;;;;;;;;;;;5035422;28;19909;-21
2023/04/24 02:04:36;;;;;;;;;;;;;;;;;;5034995;28;19917;-22
2023/04/24 02:07:02;;;;;;;;;;;;;;;;;;5035178;28;20369;-21
2023/04/24 02:09:28;;;;;;;;;;;;;;;;;;5035120;28;20260;-23
2023/04/24 02:11:56;;;;;;;;;;;;;;;;;;5035306;28;20360;-23
2023/04/24 02:14:22;;;;;;;;;;;;;;;;;;5035026;28;19909;-22
2023/04/24 02:16:48;;;;;;;;;;;;;;;;;;5034897;28;20055;-21
2023/04/24 02:19:14;;;;;;;;;;;;;;;;;;5035233;28;19932;-22
2023/04/24 02:21:40;;;;;;;;;;;;;;;;;;5017598;28;19992;-20
2023/04/24 02:24:06;;;;;;;;;;;;;;;;;;5034845;28;19913;-20
2023/04/24 02:26:31;;;;;;;;;;;;;;;;;;5017445;28;20344;-22
2023/04/24 02:28:57;;;;;;;;;;;;;;;;;;5034783;28;20264;-22
2023/04/24 02:31:24;;;;;;;;;;;;;;;;;;5034842;28;20233;-22
2023/04/24 02:33:50;;;;;;;;;;;;;;;;;;5034182;28;19909;-23
2023/04/24 02:36:16;;;;;;;;;;;;;;;;;;5034909;28;19913;-21
2023/04/24 02:38:42;;;;;;;;;;;;;;;;;;5034687;28;20345;-22
2023/04/24 02:41:08;;;;;;;;;;;;;;;;;;5034965;28;20336;-21
2023/04/24 02:43:34;;;;;;;;;;;;;;;;;;5034853;28;19978;-21
2023/04/24 02:46:00;;;;;;;;;;;;;;;;;;5034855;28;19909;-22
2023/04/24 02:48:26;;;;;;;;;;;;;;;;;;5034635;28;19909;-21
2023/04/24 02:50:52;;;;;;;;;;;;;;;;;;5034676;28;20274;-21
2023/04/24 02:53:18;;;;;;;;;;;;;;;;;;5034746;28;20001;-21
2023/04/24 02:55:45;;;;;;;;;;;;;;;;;;5034704;28;20307;-21
2023/04/24 02:58:12;;;;;;;;;;;;;;;;;;5034537;28;19909;-21
2023/04/24 03:00:39;;;;;;;;;;;;;;;;;;5034464;28;20008;-22
2023/04/24 03:03:05;;;;;;;;;;;;;;;;;;5034694;28;19975;-20
2023/04/24 03:05:31;;;;;;;;;;;;;;;;;;5013631;28;19917;-22
2023/04/24 03:07:57;;;;;;;;;;;;;;;;;;5014732;28;19910;-23
2023/04/24 03:10:23;;;;;;;;;;;;;;;;;;5014736;28;19977;-22
2023/04/24 03:12:49;;;;;;;;;;;;;;;;;;5014595;28;19968;-22
2023/04/24 03:15:15;;;;;;;;;;;;;;;;;;5014651;28;19955;-22
2023/04/24 03:17:41;;;;;;;;;;;;;;;;;;5014635;28;19917;-21
2023/04/24 03:20:08;;;;;;;;;;;;;;;;;;5014618;28;19909;-21
2023/04/24 03:22:34;;;;;;;;;;;;;;;;;;5014690;28;19922;-21
2023/04/24 03:25:00;;;;;;;;;;;;;;;;;;5014577;28;19910;-22
2023/04/24 03:27:26;;;;;;;;;;;;;;;;;;5014502;28;19909;-22
2023/04/24 03:29:54;;;;;;;;;;;;;;;;;;5014743;28;19964;-22
2023/04/24 03:32:20;;;;;;;;;;;;;;;;;;5014348;28;19940;-21
2023/04/24 03:34:46;;;;;;;;;;;;;;;;;;5014407;28;19952;-22
2023/04/24 03:37:12;;;;;;;;;;;;;;;;;;5014581;28;19914;-23
2023/04/24 03:39:38;;;;;;;;;;;;;;;;;;5014296;28;19909;-22
2023/04/24 03:42:04;;;;;;;;;;;;;;;;;;5014478;28;19920;-22
2023/04/24 03:44:30;;;;;;;;;;;;;;;;;;5014591;28;19909;-22
2023/04/24 03:46:56;;;;;;;;;;;;;;;;;;5018140;28;19910;-23
2023/04/24 03:49:22;;;;;;;;;;;;;;;;;;5017824;28;20028;-22
2023/04/24 03:51:48;;;;;;;;;;;;;;;;;;5017750;28;19918;-22
2023/04/24 03:54:14;;;;;;;;;;;;;;;;;;5017644;28;19925;-22
2023/04/24 03:56:40;;;;;;;;;;;;;;;;;;5017778;28;19977;-21
2023/04/24 03:59:06;;;;;;;;;;;;;;;;;;5017537;28;19944;-21
2023/04/24 04:04:08;;;;;;;;;;;;;;;;;;5030027;22;19979;-23
2023/04/24 04:06:36;;;;;;;;;;;;;;;;;;5037250;28;19924;-21
2023/04/24 04:09:02;;;;;;;;;;;;;;;;;;5037187;28;19909;-22
2023/04/24 04:11:28;;;;;;;;;;;;;;;;;;5037100;28;20302;-22
2023/04/24 04:13:55;;;;;;;;;;;;;;;;;;5037205;28;19913;-23
2023/04/24 04:16:21;;;;;;;;;;;;;;;;;;5037440;28;20303;-20
2023/04/24 04:18:47;;;;;;;;;;;;;;;;;;5035992;28;19932;-23
2023/04/24 04:21:13;;;;;;;;;;;;;;;;;;5037140;28;19909;-25
2023/04/24 04:23:39;;;;;;;;;;;;;;;;;;5036975;28;19916;-24
2023/04/24 04:26:05;;;;;;;;;;;;;;;;;;5036921;28;19975;-24
2023/04/24 04:28:32;;;;;;;;;;;;;;;;;;5036673;28;19920;-21
2023/04/24 04:30:58;;;;;;;;;;;;;;;;;;5037233;28;20331;-21
2023/04/24 04:33:24;;;;;;;;;;;;;;;;;;5036743;28;19949;-23
2023/04/24 04:35:51;;;;;;;;;;;;;;;;;;5036647;28;19909;-22
2023/04/24 04:38:17;;;;;;;;;;;;;;;;;;5036498;28;20000;-23
2023/04/24 04:40:43;;;;;;;;;;;;;;;;;;5036639;28;20232;-23
2023/04/24 04:43:10;;;;;;;;;;;;;;;;;;5036642;28;19920;-22
2023/04/24 04:45:37;;;;;;;;;;;;;;;;;;5036366;28;20398;-22
2023/04/24 04:48:03;;;;;;;;;;;;;;;;;;5036360;28;19955;-21
2023/04/24 04:50:29;;;;;;;;;;;;;;;;;;5036289;28;19975;-22
2023/04/24 04:52:55;;;;;;;;;;;;;;;;;;5036086;28;19910;-21
2023/04/24 04:55:21;;;;;;;;;;;;;;;;;;5035299;28;19909;-22
2023/04/24 04:57:47;;;;;;;;;;;;;;;;;;5035290;28;19913;-23
2023/04/24 05:00:13;;;;;;;;;;;;;;;;;;5035089;28;19909;-22
2023/04/24 05:02:40;;;;;;;;;;;;;;;;;;5035010;28;19917;-22
2023/04/24 05:05:06;;;;;;;;;;;;;;;;;;5034724;28;19936;-22
2023/04/24 05:07:32;;;;;;;;;;;;;;;;;;5035893;28;19934;-21
2023/04/24 05:09:58;;;;;;;;;;;;;;;;;;5035782;28;20006;-21
2023/04/24 05:12:24;;;;;;;;;;;;;;;;;;5035598;28;19952;-23
2023/04/24 05:14:50;;;;;;;;;;;;;;;;;;5035657;28;19966;-22
2023/04/24 05:17:16;;;;;;;;;;;;;;;;;;5035614;28;20019;-22
2023/04/24 05:19:42;;;;;;;;;;;;;;;;;;5035839;28;19932;-22
2023/04/24 05:22:09;;;;;;;;;;;;;;;;;;5036081;28;20300;-22
2023/04/24 05:24:35;;;;;;;;;;;;;;;;;;5035859;28;19920;-21
2023/04/24 05:27:02;;;;;;;;;;;;;;;;;;5035505;28;19909;-21
2023/04/24 05:29:30;;;;;;;;;;;;;;;;;;5035793;28;20275;-22
2023/04/24 05:31:56;;;;;;;;;;;;;;;;;;5035295;28;19916;-22
2023/04/24 05:34:22;;;;;;;;;;;;;;;;;;5035587;28;19909;-21
2023/04/24 05:36:48;;;;;;;;;;;;;;;;;;5035535;28;19913;-23
2023/04/24 05:39:15;;;;;;;;;;;;;;;;;;5035273;28;20003;-22
2023/04/24 05:41:40;;;;;;;;;;;;;;;;;;5035202;28;19909;-22
2023/04/24 05:44:06;;;;;;;;;;;;;;;;;;5035690;28;20008;-22
2023/04/24 05:46:32;;;;;;;;;;;;;;;;;;5034958;28;19913;-21
2023/04/24 05:48:58;;;;;;;;;;;;;;;;;;5035013;28;19909;-22
2023/04/24 05:51:25;;;;;;;;;;;;;;;;;;5035452;28;19909;-22
2023/04/24 05:53:51;;;;;;;;;;;;;;;;;;5034963;28;19909;-22
2023/04/24 05:56:17;;;;;;;;;;;;;;;;;;5034567;28;20127;-23
2023/04/24 05:58:43;;;;;;;;;;;;;;;;;;5034809;28;19971;-22
2023/04/24 06:01:09;;;;;;;;;;;;;;;;;;5034701;28;19910;-22
2023/04/24 06:03:35;;;;;;;;;;;;;;;;;;5034058;28;20267;-22
2023/04/24 06:06:01;;;;;;;;;;;;;;;;;;5034742;28;19909;-22
2023/04/24 06:08:27;;;;;;;;;;;;;;;;;;5034634;28;19962;-22
2023/04/24 06:10:53;;;;;;;;;;;;;;;;;;5033365;28;19920;-21
2023/04/24 06:13:19;;;;;;;;;;;;;;;;;;5035046;28;19920;-21
2023/04/24 06:15:45;;;;;;;;;;;;;;;;;;5034284;28;20003;-21
2023/04/24 06:18:12;;;;;;;;;;;;;;;;;;5033857;28;19909;-22
2023/04/24 06:20:38;;;;;;;;;;;;;;;;;;5033881;28;19910;-23
2023/04/24 06:23:04;;;;;;;;;;;;;;;;;;5033398;28;20193;-24
2023/04/24 06:25:30;;;;;;;;;;;;;;;;;;5033735;28;19920;-24
2023/04/24 06:27:56;;;;;;;;;;;;;;;;;;5033775;28;20060;-21
2023/04/24 06:30:22;;;;;;;;;;;;;;;;;;5033775;28;20256;-21
2023/04/24 06:32:48;;;;;;;;;;;;;;;;;;5033191;28;19919;-21
2023/04/24 06:35:14;;;;;;;;;;;;;;;;;;5033994;28;19925;-21
2023/04/24 06:37:40;;;;;;;;;;;;;;;;;;5032880;28;19999;-24
2023/04/24 06:40:06;;;;;;;;;;;;;;;;;;5034891;28;19963;-21
2023/04/24 06:42:32;;;;;;;;;;;;;;;;;;5034302;28;19909;-21
2023/04/24 06:44:58;;;;;;;;;;;;;;;;;;5034223;28;19925;-22
2023/04/24 06:47:24;;;;;;;;;;;;;;;;;;5033187;28;19959;-23
2023/04/24 06:49:52;;;;;;;;;;;;;;;;;;5033983;28;19909;-23
2023/04/24 06:52:18;;;;;;;;;;;;;;;;;;5033845;28;19909;-25
2023/04/24 06:54:44;;;;;;;;;;;;;;;;;;5033996;28;19974;-23
2023/04/24 06:57:10;;;;;;;;;;;;;;;;;;5032910;28;19925;-22
2023/04/24 06:59:36;;;;;;;;;;;;;;;;;;5034547;28;19913;-21
2023/04/24 07:02:02;;;;;;;;;;;;;;;;;;5033953;28;19953;-22
2023/04/24 07:04:28;;;;;;;;;;;;;;;;;;5034293;28;19913;-22
2023/04/24 07:06:55;;;;;;;;;;;;;;;;;;5034224;28;20291;-22
2023/04/24 07:09:21;;;;;;;;;;;;;;;;;;5034345;28;19909;-23
2023/04/24 07:11:48;;;;;;;;;;;;;;;;;;5034286;28;19909;-23
2023/04/24 07:14:14;;;;;;;;;;;;;;;;;;5034403;28;20255;-23
2023/04/24 07:16:40;;;;;;;;;;;;;;;;;;5034017;28;19940;-22
2023/04/24 07:19:06;;;;;;;;;;;;;;;;;;5033949;28;19920;-21
2023/04/24 07:21:32;;;;;;;;;;;;;;;;;;5037845;28;19909;-21
2023/04/24 07:23:58;;;;;;;;;;;;;;;;;;5038159;28;20018;-22
2023/04/24 07:26:24;;;;;;;;;;;;;;;;;;5037895;28;19920;-22
2023/04/24 07:28:50;;;;;;;;;;;;;;;;;;5037616;28;19917;-22
2023/04/24 07:31:16;;;;;;;;;;;;;;;;;;5037742;28;20256;-21
2023/04/24 07:33:42;;;;;;;;;;;;;;;;;;5037619;28;19909;-21
2023/04/24 07:36:08;;;;;;;;;;;;;;;;;;5037767;28;19917;-24
2023/04/24 07:38:34;;;;;;;;;;;;;;;;;;5036627;28;19944;-22
2023/04/24 07:41:00;;;;;;;;;;;;;;;;;;5037485;28;19909;-22
2023/04/24 07:43:26;;;;;;;;;;;;;;;;;;5037697;28;19920;-21
2023/04/24 07:45:52;;;;;;;;;;;;;;;;;;5037440;28;19913;-22
2023/04/24 07:48:18;;;;;;;;;;;;;;;;;;5036258;28;19994;-23
2023/04/24 07:50:44;;;;;;;;;;;;;;;;;;5036446;28;19913;-23
2023/04/24 07:53:10;;;;;;;;;;;;;;;;;;5037025;28;19909;-23
2023/04/24 07:55:36;;;;;;;;;;;;;;;;;;5037190;28;19960;-21
2023/04/24 07:58:02;;;;;;;;;;;;;;;;;;5036654;28;19948;-22
2023/04/24 08:00:28;;;;;;;;;;;;;;;;;;5036911;28;19980;-22
2023/04/24 08:02:54;;;;;;;;;;;;;;;;;;5036915;28;20032;-23
2023/04/24 08:05:20;;;;;;;;;;;;;;;;;;5037142;28;19916;-22
2023/04/24 08:07:48;;;;;;;;;;;;;;;;;;5037242;28;20402;-21
2023/04/24 08:10:14;;;;;;;;;;;;;;;;;;5037053;28;19913;-22
2023/04/24 08:12:40;;;;;;;;;;;;;;;;;;5036608;28;19913;-22
2023/04/24 08:15:06;;;;;;;;;;;;;;;;;;5035527;28;19972;-21
2023/04/24 08:17:32;;;;;;;;;;;;;;;;;;5036883;28;19913;-22
2023/04/24 08:20:01;;;;;;;;;;;;;;;;;;5036507;28;19909;-22
2023/04/24 08:22:27;;;;;;;;;;;;;;;;;;5036672;28;19910;-21
2023/04/24 08:25:05;;;;;;;;;;;;;;;;;;5036673;28;19990;-22
2023/04/24 08:27:31;;;;;;;;;;;;;;;;;;5035569;28;20000;-21
2023/04/24 08:29:57;;;;;;;;;;;;;;;;;;5035562;28;20296;-20
2023/04/24 08:32:23;;;;;;;;;;;;;;;;;;5035106;28;19909;-21
2023/04/24 08:34:49;;;;;;;;;;;;;;;;;;5036285;28;19971;-22
2023/04/24 08:37:15;;;;;;;;;;;;;;;;;;5036266;28;19912;-22
2023/04/24 08:39:40;;;;;;;;;;;;;;;;;;5036228;28;19997;-23
2023/04/24 08:42:07;;;;;;;;;;;;;;;;;;5035961;28;19909;-24
2023/04/24 08:44:33;;;;;;;;;;;;;;;;;;5035670;28;19985;-22
2023/04/24 08:46:59;;;;;;;;;;;;;;;;;;5035124;28;20209;-22
2023/04/24 08:49:25;;;;;;;;;;;;;;;;;;5035338;28;19932;-21
2023/04/24 08:51:51;;;;;;;;;;;;;;;;;;5035104;28;19909;-21
2023/04/24 08:54:18;;;;;;;;;;;;;;;;;;5035045;28;19988;-22
2023/04/24 08:56:44;;;;;;;;;;;;;;;;;;5035114;28;20308;-22
2023/04/24 08:59:10;;;;;;;;;;;;;;;;;;5035008;28;19916;-23
2023/04/24 09:01:37;;;;;;;;;;;;;;;;;;5035021;28;20038;-22
2023/04/24 09:04:03;;;;;;;;;;;;;;;;;;5033504;28;20422;-22
2023/04/24 09:06:30;;;;;;;;;;;;;;;;;;5034908;28;20240;-22
2023/04/24 09:08:56;;;;;;;;;;;;;;;;;;5034874;28;19909;-21
2023/04/24 09:11:24;;;;;;;;;;;;;;;;;;5033649;28;19909;-21
2023/04/24 09:13:50;;;;;;;;;;;;;;;;;;5033563;28;19917;-20
2023/04/24 09:16:16;;;;;;;;;;;;;;;;;;5034743;28;20351;-21
2023/04/24 09:18:42;;;;;;;;;;;;;;;;;;5034677;28;19967;-23
2023/04/24 09:21:08;;;;;;;;;;;;;;;;;;5034832;28;20240;-22
2023/04/24 09:23:34;;;;;;;;;;;;;;;;;;5035482;28;20329;-21
2023/04/24 09:26:00;;;;;;;;;;;;;;;;;;5035330;28;19913;-21
2023/04/24 09:28:26;;;;;;;;;;;;;;;;;;5035368;28;19925;-22
2023/04/24 09:30:52;;;;;;;;;;;;;;;;;;5035306;28;20006;-23
2023/04/24 09:33:18;;;;;;;;;;;;;;;;;;5035170;28;20316;-21
2023/04/24 09:35:44;;;;;;;;;;;;;;;;;;5034378;28;20336;-22
2023/04/24 09:38:10;;;;;;;;;;;;;;;;;;5034891;28;19914;-22
2023/04/24 09:40:36;;;;;;;;;;;;;;;;;;5035201;28;20009;-22
2023/04/24 09:43:02;;;;;;;;;;;;;;;;;;5034946;28;20003;-22
2023/04/24 09:45:28;;;;;;;;;;;;;;;;;;5034061;28;19920;-22
2023/04/24 09:47:54;;;;;;;;;;;;;;;;;;5035186;28;19913;-21
2023/04/24 09:50:21;;;;;;;;;;;;;;;;;;5035197;28;20370;-22
2023/04/24 09:52:47;;;;;;;;;;;;;;;;;;5034193;28;20374;-23
2023/04/24 09:55:13;;;;;;;;;;;;;;;;;;5034966;28;19992;-22
2023/04/24 09:57:39;;;;;;;;;;;;;;;;;;5034880;28;19913;-21
2023/04/24 10:00:05;;;;;;;;;;;;;;;;;;5034859;28;19959;-21
2023/04/24 10:02:31;;;;;;;;;;;;;;;;;;5034294;28;20012;-22
2023/04/24 10:04:58;;;;;;;;;;;;;;;;;;5034584;28;19944;-25
2023/04/24 10:07:25;;;;;;;;;;;;;;;;;;5034637;28;20008;-21
2023/04/24 10:09:51;;;;;;;;;;;;;;;;;;5034706;28;19921;-23
2023/04/24 10:12:17;;;;;;;;;;;;;;;;;;5034575;28;19909;-23
2023/04/24 10:14:43;;;;;;;;;;;;;;;;;;5034459;28;19909;-21
2023/04/24 10:17:09;;;;;;;;;;;;;;;;;;5034749;28;20115;-22
2023/04/24 10:19:35;;;;;;;;;;;;;;;;;;5034501;28;20422;-21
2023/04/24 10:22:01;;;;;;;;;;;;;;;;;;5034562;28;20232;-24
2023/04/24 10:24:27;;;;;;;;;;;;;;;;;;5034518;28;19920;-22
2023/04/24 10:26:53;;;;;;;;;;;;;;;;;;5034709;28;19909;-22
2023/04/24 10:29:19;;;;;;;;;;;;;;;;;;5034437;28;19989;-21
2023/04/24 10:31:46;;;;;;;;;;;;;;;;;;5034089;28;19909;-21
2023/04/24 10:34:12;;;;;;;;;;;;;;;;;;5034108;28;19909;-21
2023/04/24 10:36:38;;;;;;;;;;;;;;;;;;5034172;28;20235;-21
2023/04/24 10:39:04;;;;;;;;;;;;;;;;;;5034239;28;20261;-22
2023/04/24 10:41:30;;;;;;;;;;;;;;;;;;5034293;28;19999;-22
2023/04/24 10:43:56;;;;;;;;;;;;;;;;;;5034186;28;19909;-21
2023/04/24 10:46:22;;;;;;;;;;;;;;;;;;5034357;28;20362;-21
2023/04/24 10:48:48;;;;;;;;;;;;;;;;;;5034253;28;20047;-23
2023/04/24 10:51:14;;;;;;;;;;;;;;;;;;5032932;28;19913;-22
2023/04/24 10:53:40;;;;;;;;;;;;;;;;;;5034268;28;19909;-21
2023/04/24 10:56:06;;;;;;;;;;;;;;;;;;5032113;28;19909;-21
2023/04/24 10:58:32;;;;;;;;;;;;;;;;;;5033825;28;19997;-22
2023/04/24 11:00:58;;;;;;;;;;;;;;;;;;5032496;28;19913;-22
2023/04/24 11:03:24;;;;;;;;;;;;;;;;;;5032982;28;19931;-24
2023/04/24 11:05:51;;;;;;;;;;;;;;;;;;5033268;28;19909;-23
2023/04/24 11:08:17;;;;;;;;;;;;;;;;;;5033197;28;19920;-21
2023/04/24 11:10:43;;;;;;;;;;;;;;;;;;5033364;28;20311;-22
2023/04/24 11:13:09;;;;;;;;;;;;;;;;;;5032549;28;19913;-22
2023/04/24 11:15:35;;;;;;;;;;;;;;;;;;5032955;28;20367;-21
2023/04/24 11:18:01;;;;;;;;;;;;;;;;;;5033030;28;19913;-22
2023/04/24 11:20:27;;;;;;;;;;;;;;;;;;5032145;28;20229;-23
2023/04/24 11:22:54;;;;;;;;;;;;;;;;;;5033355;28;19916;-22
2023/04/24 11:25:21;;;;;;;;;;;;;;;;;;5033446;28;19955;-22
2023/04/24 11:27:48;;;;;;;;;;;;;;;;;;5033558;28;20321;-24
2023/04/24 11:30:14;;;;;;;;;;;;;;;;;;5033484;28;19976;-22
2023/04/24 11:32:40;;;;;;;;;;;;;;;;;;5033995;28;19916;-23
2023/04/24 11:35:06;;;;;;;;;;;;;;;;;;5034011;28;19909;-21
2023/04/24 11:37:32;;;;;;;;;;;;;;;;;;5034127;28;20000;-22
2023/04/24 11:39:58;;;;;;;;;;;;;;;;;;5034181;28;20027;-23
2023/04/24 11:42:25;;;;;;;;;;;;;;;;;;5033899;28;19913;-23
2023/04/24 11:44:51;;;;;;;;;;;;;;;;;;5033941;28;19909;-23
2023/04/24 11:47:17;;;;;;;;;;;;;;;;;;5033641;28;20430;-21
2023/04/24 11:49:43;;;;;;;;;;;;;;;;;;5033951;28;20007;-22
2023/04/24 11:52:10;;;;;;;;;;;;;;;;;;5033658;28;20306;-23
2023/04/24 11:54:36;;;;;;;;;;;;;;;;;;5033213;28;19943;-22
2023/04/24 11:57:02;;;;;;;;;;;;;;;;;;5033420;28;20007;-22
2023/04/24 11:59:28;;;;;;;;;;;;;;;;;;5033598;28;20256;-22
2023/04/24 12:01:54;;;;;;;;;;;;;;;;;;5033455;28;19951;-30
2023/04/24 12:04:20;;;;;;;;;;;;;;;;;;5033408;28;19921;-21
2023/04/24 12:06:46;;;;;;;;;;;;;;;;;;5035824;28;20016;-22
2023/04/24 12:09:12;;;;;;;;;;;;;;;;;;5036896;28;19909;-21
2023/04/24 12:11:38;;;;;;;;;;;;;;;;;;5037019;28;19920;-22
2023/04/24 12:14:04;;;;;;;;;;;;;;;;;;5036982;28;19919;-23
2023/04/24 12:16:31;;;;;;;;;;;;;;;;;;5036746;28;20052;-23
2023/04/24 12:18:57;;;;;;;;;;;;;;;;;;5036888;28;19917;-22
2023/04/24 12:21:26;;;;;;;;;;;;;;;;;;5036729;28;19967;-21
2023/04/24 12:23:52;;;;;;;;;;;;;;;;;;5037033;28;19909;-22
2023/04/24 12:26:18;;;;;;;;;;;;;;;;;;5036471;28;19955;-21
2023/04/24 12:28:44;;;;;;;;;;;;;;;;;;5036437;28;19913;-21
2023/04/24 12:31:10;;;;;;;;;;;;;;;;;;5035465;28;20008;-22
2023/04/24 12:33:36;;;;;;;;;;;;;;;;;;5036501;28;20268;-21
2023/04/24 12:36:02;;;;;;;;;;;;;;;;;;5036350;28;20031;-23
2023/04/24 12:38:39;;;;;;;;;;;;;;;;;;5036484;28;20010;-23
2023/04/24 12:41:05;;;;;;;;;;;;;;;;;;5036342;28;19921;-21
2023/04/24 12:43:31;;;;;;;;;;;;;;;;;;5036284;28;20067;-22
2023/04/24 12:45:58;;;;;;;;;;;;;;;;;;5036615;28;19909;-22
2023/04/24 12:48:24;;;;;;;;;;;;;;;;;;5036533;28;20193;-22
2023/04/24 12:50:50;;;;;;;;;;;;;;;;;;5036355;28;20015;-21
2023/04/24 12:53:16;;;;;;;;;;;;;;;;;;5036269;28;19916;-21
2023/04/24 12:55:44;;;;;;;;;;;;;;;;;;5036365;28;19958;-21
2023/04/24 12:58:10;;;;;;;;;;;;;;;;;;5035928;28;19960;-21
2023/04/24 13:00:36;;;;;;;;;;;;;;;;;;5034949;28;19924;-23
2023/04/24 13:03:02;;;;;;;;;;;;;;;;;;5035982;28;19932;-22
2023/04/24 13:05:28;;;;;;;;;;;;;;;;;;5036091;28;19909;-22
2023/04/24 13:07:54;;;;;;;;;;;;;;;;;;5036389;28;19952;-21
2023/04/24 13:10:20;;;;;;;;;;;;;;;;;;5035978;28;19949;-22
2023/04/24 13:12:46;;;;;;;;;;;;;;;;;;5035986;28;19935;-23
2023/04/24 13:15:12;;;;;;;;;;;;;;;;;;5035646;28;19909;-23
2023/04/24 13:17:38;;;;;;;;;;;;;;;;;;5035311;28;19992;-21
2023/04/24 13:20:04;;;;;;;;;;;;;;;;;;5036684;28;19913;-22
2023/04/24 13:22:30;;;;;;;;;;;;;;;;;;5036185;28;19970;-21
2023/04/24 13:24:57;;;;;;;;;;;;;;;;;;5035643;28;19909;-21
2023/04/24 13:27:23;;;;;;;;;;;;;;;;;;5035558;28;19941;-21
2023/04/24 13:29:49;;;;;;;;;;;;;;;;;;5035643;28;19913;-22
2023/04/24 13:32:15;;;;;;;;;;;;;;;;;;5035460;28;19973;-22
2023/04/24 13:34:41;;;;;;;;;;;;;;;;;;5035639;28;19915;-22
2023/04/24 13:37:07;;;;;;;;;;;;;;;;;;5035371;28;19913;-21
2023/04/24 13:39:33;;;;;;;;;;;;;;;;;;5035693;28;19944;-22
2023/04/24 13:42:00;;;;;;;;;;;;;;;;;;5035264;28;19909;-22
2023/04/24 13:44:26;;;;;;;;;;;;;;;;;;5035189;28;20008;-23
2023/04/24 13:46:53;;;;;;;;;;;;;;;;;;5035274;28;20230;-22
2023/04/24 13:49:19;;;;;;;;;;;;;;;;;;5035439;28;19909;-21
2023/04/24 13:51:45;;;;;;;;;;;;;;;;;;5035187;28;20047;-22
2023/04/24 13:54:11;;;;;;;;;;;;;;;;;;5035286;28;19967;-22
2023/04/24 13:56:37;;;;;;;;;;;;;;;;;;5035545;28;19913;-21
2023/04/24 13:59:03;;;;;;;;;;;;;;;;;;5034261;28;20232;-22
2023/04/24 14:01:29;;;;;;;;;;;;;;;;;;5035329;28;19917;-22
2023/04/24 14:03:55;;;;;;;;;;;;;;;;;;5034914;28;19932;-23
2023/04/24 14:06:22;;;;;;;;;;;;;;;;;;5035057;28;20232;-23
2023/04/24 14:08:48;;;;;;;;;;;;;;;;;;5034899;28;19909;-22
2023/04/24 14:11:14;;;;;;;;;;;;;;;;;;5034771;28;19923;-21
2023/04/24 14:13:40;;;;;;;;;;;;;;;;;;5034820;28;19909;-20
2023/04/24 14:16:06;;;;;;;;;;;;;;;;;;5034539;28;19963;-21
2023/04/24 14:18:32;;;;;;;;;;;;;;;;;;5033566;28;19909;-22
2023/04/24 14:20:59;;;;;;;;;;;;;;;;;;5033738;28;20340;-22
2023/04/24 14:23:25;;;;;;;;;;;;;;;;;;5034900;28;19920;-22
2023/04/24 14:25:52;;;;;;;;;;;;;;;;;;5033678;28;20240;-21
2023/04/24 14:28:18;;;;;;;;;;;;;;;;;;5034465;28;20255;-22
2023/04/24 14:30:44;;;;;;;;;;;;;;;;;;5033705;28;19913;-22
2023/04/24 14:33:11;;;;;;;;;;;;;;;;;;5034541;28;19951;-22
2023/04/24 14:35:37;;;;;;;;;;;;;;;;;;5034481;28;20051;-21
2023/04/24 14:38:03;;;;;;;;;;;;;;;;;;5033412;28;20343;-21
2023/04/24 14:40:31;;;;;;;;;;;;;;;;;;5033519;28;19920;-24
2023/04/24 14:42:57;;;;;;;;;;;;;;;;;;5034592;28;19908;-22
2023/04/24 14:45:23;;;;;;;;;;;;;;;;;;5035343;28;19910;-22
2023/04/24 14:47:49;;;;;;;;;;;;;;;;;;5034382;28;20232;-23
2023/04/24 14:50:15;;;;;;;;;;;;;;;;;;5033078;28;19909;-22
2023/04/24 14:52:41;;;;;;;;;;;;;;;;;;5034184;28;19909;-22
2023/04/24 14:55:07;;;;;;;;;;;;;;;;;;5033211;28;19909;-22
2023/04/24 14:57:33;;;;;;;;;;;;;;;;;;5034395;28;19913;-23
2023/04/24 14:59:59;;;;;;;;;;;;;;;;;;5034170;28;19976;-23
2023/04/24 15:02:25;;;;;;;;;;;;;;;;;;5033941;28;19971;-23
2023/04/24 15:04:51;;;;;;;;;;;;;;;;;;5034637;28;19942;-22
2023/04/24 15:07:17;;;;;;;;;;;;;;;;;;5034378;28;19909;-21
2023/04/24 15:09:43;;;;;;;;;;;;;;;;;;5034115;28;19920;-23
2023/04/24 15:12:12;;;;;;;;;;;;;;;;;;5033635;28;20016;-23
2023/04/24 15:14:38;;;;;;;;;;;;;;;;;;5033283;28;19910;-24
2023/04/24 15:17:06;;;;;;;;;;;;;;;;;;5032437;28;20731;-23
2023/04/24 15:19:32;;;;;;;;;;;;;;;;;;5033362;28;19909;-21
2023/04/24 15:21:57;;;;;;;;;;;;;;;;;;5032957;28;19986;-23
2023/04/24 15:24:24;;;;;;;;;;;;;;;;;;5033185;28;20336;-22
2023/04/24 15:26:50;;;;;;;;;;;;;;;;;;5033155;28;19910;-23
2023/04/24 15:29:16;;;;;;;;;;;;;;;;;;5033540;28;19999;-22
2023/04/24 15:31:42;;;;;;;;;;;;;;;;;;5033110;28;19919;-22
2023/04/24 15:34:08;;;;;;;;;;;;;;;;;;5032977;28;19909;-22
2023/04/24 15:36:34;;;;;;;;;;;;;;;;;;5033372;28;19917;-23
2023/04/24 15:39:00;;;;;;;;;;;;;;;;;;5033730;28;19981;-21
2023/04/24 15:41:26;;;;;;;;;;;;;;;;;;5035841;28;19941;-22
2023/04/24 15:43:52;;;;;;;;;;;;;;;;;;5037787;28;19910;-22
2023/04/24 15:46:18;;;;;;;;;;;;;;;;;;5036624;28;19920;-22
2023/04/24 15:48:44;;;;;;;;;;;;;;;;;;5036647;28;19913;-22
2023/04/24 15:51:10;;;;;;;;;;;;;;;;;;5037824;28;19909;-23
2023/04/24 15:53:36;;;;;;;;;;;;;;;;;;5037485;28;20247;-23
2023/04/24 15:56:02;;;;;;;;;;;;;;;;;;5037696;28;19909;-23
2023/04/24 15:58:28;;;;;;;;;;;;;;;;;;5037643;28;19909;-22
2023/04/24 16:00:54;;;;;;;;;;;;;;;;;;5037851;28;19924;-22
2023/04/24 16:03:21;;;;;;;;;;;;;;;;;;5037401;28;19917;-22
2023/04/24 16:05:47;;;;;;;;;;;;;;;;;;5037523;28;20364;-23
2023/04/24 16:08:14;;;;;;;;;;;;;;;;;;5037312;28;19909;-23
2023/04/24 16:10:40;;;;;;;;;;;;;;;;;;5037199;28;19963;-23
2023/04/24 16:13:06;;;;;;;;;;;;;;;;;;5037098;28;19909;-23
2023/04/24 16:15:32;;;;;;;;;;;;;;;;;;5037214;28;20410;-30
2023/04/24 16:17:58;;;;;;;;;;;;;;;;;;5037177;28;19983;-22
2023/04/24 16:20:24;;;;;;;;;;;;;;;;;;5036164;28;19924;-21
2023/04/24 16:22:50;;;;;;;;;;;;;;;;;;5037155;28;19990;-23
2023/04/24 16:25:16;;;;;;;;;;;;;;;;;;5037033;28;19909;-24
2023/04/24 16:27:42;;;;;;;;;;;;;;;;;;5037090;28;19920;-22
2023/04/24 16:30:08;;;;;;;;;;;;;;;;;;5036960;28;19913;-22
2023/04/24 16:32:35;;;;;;;;;;;;;;;;;;5036794;28;19999;-21
2023/04/24 16:35:01;;;;;;;;;;;;;;;;;;5036746;28;19910;-21
2023/04/24 16:37:26;;;;;;;;;;;;;;;;;;5036775;28;20304;-20
2023/04/24 16:39:53;;;;;;;;;;;;;;;;;;5036909;28;19917;-22